Time;durP1;ratioP1;P1;durP2;ratioP2;P2;SDS_P1;SDS_P2;PMS_P1;PMS_P2;Temp;Humidity;BMP_temperature;BMP_pressure;BME280_temperature;BME280_humidity;BME280_pressure;Samples;Min_cycle;Max_cycle;Signal;HPM_P1;HPM_P2
2023/02/02 11:20:36;;;;;;;11.63;1.43;;;7.10;99.90;;;;;;2727777;23;20488;-71
2023/02/02 11:23:06;;;;;;;4.00;1.30;;;7.20;99.90;;;;;;4900589;29;20417;-70
2023/02/02 11:25:38;;;;;;;2.93;0.90;;;7.20;99.90;;;;;;4897708;29;20414;-71
2023/02/02 11:28:17;;;;;;;2.10;1.23;;;7.30;99.90;;;;;;4893739;29;20504;-71
2023/02/02 11:30:47;;;;;;;3.90;2.00;;;7.50;99.90;;;;;;4888201;29;20475;-70
2023/02/02 11:33:33;;;;;;;2.87;1.33;;;7.80;99.90;;;;;;4890605;29;20436;-71
2023/02/02 11:36:04;;;;;;;6.43;1.40;;;7.90;99.90;;;;;;4886266;29;20465;-71
2023/02/02 11:38:31;;;;;;;8.53;1.73;;;7.90;99.90;;;;;;4895095;29;20501;-71
2023/02/02 11:41:07;;;;;;;3.83;1.70;;;7.80;99.90;;;;;;4897805;29;20456;-71
2023/02/02 11:43:53;;;;;;;6.23;1.40;;;7.90;99.90;;;;;;4896351;29;20412;-70
2023/02/02 11:46:27;;;;;;;1.97;1.27;;;7.60;99.90;;;;;;4894183;29;20508;-71
2023/02/02 11:49:02;;;;;;;3.83;2.23;;;7.80;99.90;;;;;;4894556;29;21000;-71
2023/02/02 11:51:29;;;;;;;2.67;1.70;;;7.50;99.90;;;;;;4884899;29;20497;-70
2023/02/02 11:54:15;;;;;;;1.60;1.17;;;7.50;99.90;;;;;;4895990;29;20441;-71
2023/02/02 11:56:42;;;;;;;5.67;1.80;;;7.60;99.90;;;;;;4893706;29;20470;-68
2023/02/02 11:59:30;;;;;;;2.37;1.23;;;7.70;99.90;;;;;;4892393;29;20429;-65
2023/02/02 12:02:21;;;;;;;7.90;1.57;;;7.60;99.90;;;;;;4885021;29;20414;-71
2023/02/02 12:04:48;;;;;;;4.70;1.07;;;7.50;99.90;;;;;;4889814;29;20413;-65
2023/02/02 12:07:21;;;;;;;6.10;1.43;;;7.60;99.90;;;;;;4899586;29;20413;-70
2023/02/02 12:09:46;;;;;;;2.30;1.30;;;7.30;99.90;;;;;;4893195;29;20612;-70
2023/02/02 12:12:41;;;;;;;1.53;1.30;;;7.10;99.90;;;;;;4887998;29;20904;-69
2023/02/02 12:15:28;;;;;;;2.83;1.00;;;7.10;99.90;;;;;;4888941;29;20208;-69
2023/02/02 12:18:38;;;;;;;9.17;1.50;;;6.80;99.90;;;;;;4892104;29;20424;-71
2023/02/02 12:21:30;;;;;;;6.40;1.50;;;6.70;99.90;;;;;;4898616;29;20452;-71
2023/02/02 12:24:19;;;;;;;4.10;1.50;;;6.70;99.90;;;;;;4894225;29;20604;-71
2023/02/02 12:26:55;;;;;;;1.73;0.83;;;6.60;99.90;;;;;;4895106;29;20404;-70
2023/02/02 12:29:39;;;;;;;4.13;1.27;;;6.40;99.90;;;;;;4896377;29;20436;-70
2023/02/02 12:32:26;;;;;;;4.53;1.80;;;6.40;99.90;;;;;;4890950;29;20483;-71
2023/02/02 12:35:20;;;;;;;4.60;1.13;;;6.10;99.90;;;;;;4888829;29;20422;-70
2023/02/02 12:38:30;;;;;;;6.37;2.20;;;6.10;99.90;;;;;;4888680;29;20417;-70
2023/02/02 12:40:55;;;;;;;2.77;2.43;;;6.10;99.90;;;;;;4895943;29;20440;-70
2023/02/02 12:43:21;;;;;;;4.70;1.90;;;6.10;99.90;;;;;;4893771;29;20421;-70
2023/02/02 12:46:05;;;;;;;1.97;1.57;;;6.30;99.90;;;;;;4903212;29;20180;-70
2023/02/02 12:48:38;;;;;;;3.13;1.47;;;6.40;99.90;;;;;;4892538;29;20192;-70
2023/02/02 12:51:29;;;;;;;2.40;1.30;;;6.40;99.90;;;;;;4895016;29;20441;-71
2023/02/02 12:54:09;;;;;;;2.03;1.27;;;6.30;99.90;;;;;;4898727;29;20404;-69
2023/02/02 12:57:04;;;;;;;8.83;1.60;;;6.40;99.90;;;;;;4896729;29;20819;-69
2023/02/02 12:59:48;;;;;;;4.60;1.20;;;6.40;99.90;;;;;;4897072;29;20420;-69
2023/02/02 13:02:35;;;;;;;2.50;1.43;;;6.40;99.90;;;;;;4895654;29;20413;-70
2023/02/02 13:05:12;;;;;;;1.30;1.03;;;6.50;99.90;;;;;;4890595;29;20821;-69
2023/02/02 13:08:03;;;;;;;3.23;1.30;;;6.40;99.90;;;;;;4895730;29;20476;-70
2023/02/02 13:10:42;;;;;;;6.17;1.23;;;6.50;99.90;;;;;;4907140;29;20439;-70
2023/02/02 13:13:10;;;;;;;1.87;1.23;;;6.70;99.90;;;;;;4891923;29;20424;-69
2023/02/02 13:15:40;;;;;;;2.30;1.27;;;6.70;99.90;;;;;;4896037;29;20456;-71
2023/02/02 13:18:15;;;;;;;3.13;2.47;;;6.90;99.90;;;;;;4890905;29;20416;-70
2023/02/02 13:20:46;;;;;;;3.37;1.33;;;7.00;99.90;;;;;;4895551;29;20460;-70
2023/02/02 13:23:14;;;;;;;5.10;1.37;;;7.00;99.90;;;;;;4890672;29;20427;-70
2023/02/02 13:25:45;;;;;;;3.60;1.70;;;7.00;99.90;;;;;;4895968;29;20425;-70
2023/02/02 13:28:22;;;;;;;1.63;0.80;;;7.00;99.90;;;;;;4895762;29;20424;-70
2023/02/02 13:30:51;;;;;;;3.60;1.40;;;7.10;99.90;;;;;;4888910;29;20468;-70
2023/02/02 13:33:22;;;;;;;3.87;1.43;;;7.20;99.90;;;;;;4900782;29;20495;-70
2023/02/02 13:35:54;;;;;;;5.27;1.10;;;7.30;99.90;;;;;;4888112;29;20951;-69
2023/02/02 13:38:25;;;;;;;4.83;1.33;;;7.40;99.90;;;;;;4893907;29;20472;-70
2023/02/02 13:40:54;;;;;;;1.67;1.23;;;7.40;99.90;;;;;;4890604;29;20451;-69
2023/02/02 13:43:41;;;;;;;2.03;1.27;;;7.40;99.90;;;;;;4895722;29;20413;-70
2023/02/02 13:46:21;;;;;;;3.13;1.07;;;7.40;99.90;;;;;;4899951;29;20868;-70
2023/02/02 13:49:00;;;;;;;5.33;1.67;;;7.50;99.90;;;;;;4893206;29;20425;-69
2023/02/02 13:52:00;;;;;;;2.57;1.33;;;7.40;99.90;;;;;;4896594;29;20449;-69
2023/02/02 13:54:51;;;;;;;2.97;1.30;;;7.30;99.90;;;;;;4881480;29;20512;-70
2023/02/02 13:57:29;;;;;;;3.80;1.10;;;7.40;99.90;;;;;;4895470;29;20934;-71
2023/02/02 14:00:19;;;;;;;1.53;0.90;;;7.30;99.90;;;;;;4889277;29;20553;-70
2023/02/02 14:03:02;;;;;;;4.00;1.30;;;7.20;99.90;;;;;;4890173;29;20781;-70
2023/02/02 14:05:32;;;;;;;2.73;1.13;;;7.10;99.90;;;;;;4895733;29;20507;-71
2023/02/02 14:08:18;;;;;;;4.60;1.33;;;6.90;99.90;;;;;;4899756;29;20511;-69
2023/02/02 14:10:57;;;;;;;1.67;1.00;;;6.80;99.90;;;;;;4898589;29;20434;-70
2023/02/02 14:16:34;;;;;;;1.10;1.00;;;6.60;99.90;;;;;;4896195;29;20526;-70
2023/02/02 14:19:31;;;;;;;7.77;1.43;;;6.50;99.90;;;;;;4898307;29;20448;-70
2023/02/02 14:22:10;;;;;;;3.33;1.37;;;6.40;99.90;;;;;;4882145;29;20220;-71
2023/02/02 14:24:36;;;;;;;1.53;0.83;;;6.30;99.90;;;;;;4906552;29;20517;-68
2023/02/02 14:27:07;;;;;;;2.30;1.23;;;6.20;99.90;;;;;;4900874;29;20449;-70
2023/02/02 14:29:36;;;;;;;3.57;1.20;;;6.10;99.90;;;;;;4910489;29;20200;-69
2023/02/02 14:32:23;;;;;;;1.20;1.10;;;6.10;99.90;;;;;;4894341;29;20428;-69
2023/02/02 14:34:56;;;;;;;2.87;1.20;;;6.00;99.90;;;;;;4901823;29;20559;-69
2023/02/02 14:37:25;;;;;;;2.07;1.03;;;6.00;99.90;;;;;;4900177;29;20427;-69
2023/02/02 14:40:03;;;;;;;1.37;1.27;;;5.90;99.90;;;;;;4895404;29;20445;-71
2023/02/02 14:45:34;;;;;;;3.40;1.90;;;5.70;99.90;;;;;;4898791;29;20750;-69
2023/02/02 14:48:06;;;;;;;2.63;1.87;;;5.60;99.90;;;;;;4894053;29;20496;-70
2023/02/02 14:50:37;;;;;;;3.03;1.00;;;5.60;99.90;;;;;;4898276;29;20446;-69
2023/02/02 14:53:18;;;;;;;3.77;1.00;;;5.60;99.90;;;;;;4897070;29;20428;-69
2023/02/02 14:56:01;;;;;;;1.27;1.00;;;5.50;99.90;;;;;;4895882;29;20816;-70
2023/02/02 14:58:31;;;;;;;2.07;1.00;;;5.50;99.90;;;;;;4896458;29;20416;-70
2023/02/02 15:01:24;;;;;;;1.20;0.93;;;5.40;99.90;;;;;;4902013;29;20436;-71
2023/02/02 15:03:59;;;;;;;3.17;1.20;;;5.30;99.90;;;;;;4890139;29;20452;-70
2023/02/02 15:06:41;;;;;;;2.40;1.47;;;5.30;99.90;;;;;;4896871;29;20746;-70
2023/02/02 15:09:18;;;;;;;1.03;1.03;;;5.30;99.90;;;;;;4900583;29;20479;-70
2023/02/02 15:12:05;;;;;;;3.43;1.23;;;5.20;99.90;;;;;;4897065;29;20416;-70
2023/02/02 15:14:46;;;;;;;1.37;0.90;;;5.20;99.90;;;;;;4891228;29;20411;-68
2023/02/02 15:17:41;;;;;;;4.10;1.27;;;5.20;99.90;;;;;;4897456;29;20522;-69
2023/02/02 15:20:19;;;;;;;1.70;1.60;;;5.10;99.90;;;;;;4894491;29;20449;-70
2023/02/02 15:22:54;;;;;;;1.47;1.10;;;5.10;99.90;;;;;;4894217;29;20409;-69
2023/02/02 15:25:25;;;;;;;3.50;1.20;;;5.10;99.90;;;;;;4898393;29;20420;-69
2023/02/02 15:28:22;;;;;;;1.37;1.10;;;5.00;99.90;;;;;;4893983;29;20417;-69
2023/02/02 15:30:55;;;;;;;2.40;1.37;;;4.90;99.90;;;;;;4892887;29;20433;-69
2023/02/02 15:33:35;;;;;;;2.10;1.30;;;4.90;99.90;;;;;;4902490;29;20834;-70
2023/02/02 15:36:33;;;;;;;1.07;0.97;;;4.90;99.90;;;;;;4896824;29;20523;-69
2023/02/02 15:39:02;;;;;;;1.67;1.50;;;4.80;99.90;;;;;;4895586;29;20417;-69
2023/02/02 15:41:40;;;;;;;2.90;1.07;;;4.70;99.90;;;;;;4899346;29;20445;-69
2023/02/02 15:44:27;;;;;;;1.70;1.37;;;4.60;99.90;;;;;;4892175;29;20416;-70
2023/02/02 15:46:53;;;;;;;1.40;1.00;;;4.50;99.90;;;;;;4892670;29;20925;-69
2023/02/02 15:49:20;;;;;;;1.67;1.10;;;4.40;99.90;;;;;;4895868;29;20421;-70
2023/02/02 15:51:51;;;;;;;1.63;1.30;;;4.40;99.90;;;;;;4897126;29;20464;-70
2023/02/02 15:54:36;;;;;;;2.20;1.67;;;4.30;99.90;;;;;;4889193;29;20416;-70
2023/02/02 15:57:03;;;;;;;5.10;2.60;;;4.30;99.90;;;;;;4886236;29;20963;-71
2023/02/02 15:59:40;;;;;;;3.07;1.10;;;4.20;99.90;;;;;;4893050;29;20849;-69
2023/02/02 16:02:05;;;;;;;0.90;0.90;;;4.20;99.90;;;;;;4891664;29;20436;-70
2023/02/02 16:04:43;;;;;;;3.60;1.63;;;4.20;99.90;;;;;;4893117;29;20413;-67
2023/02/02 16:07:12;;;;;;;2.00;1.20;;;4.20;99.90;;;;;;4900963;29;20180;-69
2023/02/02 16:09:40;;;;;;;2.50;1.13;;;4.10;99.90;;;;;;4896143;29;20451;-69
2023/02/02 16:12:20;;;;;;;1.20;1.10;;;4.00;99.90;;;;;;4894630;29;20472;-70
2023/02/02 16:14:51;;;;;;;1.57;0.90;;;4.00;99.90;;;;;;4894424;29;20419;-71
2023/02/02 16:17:22;;;;;;;2.80;1.43;;;3.90;99.90;;;;;;4893992;29;20475;-70
2023/02/02 16:19:49;;;;;;;4.00;1.13;;;3.90;99.90;;;;;;4895006;29;20508;-67
2023/02/02 16:22:20;;;;;;;1.77;1.37;;;3.80;99.90;;;;;;4894287;29;20468;-69
2023/02/02 16:24:53;;;;;;;1.90;1.37;;;3.70;99.90;;;;;;4902283;29;20837;-69
2023/02/02 16:27:22;;;;;;;4.10;1.87;;;3.60;99.90;;;;;;4899722;29;20433;-71
2023/02/02 16:29:49;;;;;;;1.73;1.63;;;3.70;99.90;;;;;;4894935;29;20447;-71
2023/02/02 16:32:43;;;;;;;4.80;1.60;;;3.60;99.90;;;;;;4896298;29;20496;-70
2023/02/02 16:35:30;;;;;;;1.93;1.33;;;3.50;99.90;;;;;;4889830;29;20860;-71
2023/02/02 16:38:28;;;;;;;3.10;1.77;;;3.40;99.90;;;;;;4891932;29;20951;-70
2023/02/02 16:41:11;;;;;;;1.37;1.27;;;3.40;99.90;;;;;;4890816;29;20445;-70
2023/02/02 16:43:39;;;;;;;2.47;1.30;;;3.30;99.90;;;;;;4891754;29;20423;-70
2023/02/02 16:46:10;;;;;;;1.80;1.53;;;3.30;99.90;;;;;;4892774;29;20424;-69
2023/02/02 16:48:37;;;;;;;5.13;2.00;;;3.30;99.90;;;;;;4895655;29;20461;-71
2023/02/02 16:51:15;;;;;;;1.47;1.20;;;3.30;99.90;;;;;;4896270;29;20475;-71
2023/02/02 16:53:42;;;;;;;3.00;1.33;;;3.20;99.90;;;;;;4890060;29;20413;-69
2023/02/02 16:56:09;;;;;;;2.13;1.63;;;3.10;99.90;;;;;;4896667;29;20495;-70
2023/02/02 16:58:42;;;;;;;3.23;1.70;;;3.10;99.90;;;;;;4891131;29;20416;-69
2023/02/02 17:01:11;;;;;;;5.53;2.07;;;3.10;99.90;;;;;;4894675;29;20447;-71
2023/02/02 17:03:41;;;;;;;2.10;1.33;;;3.10;99.90;;;;;;4896656;29;20447;-71
2023/02/02 17:06:07;;;;;;;1.63;1.53;;;3.10;99.90;;;;;;4895322;29;20829;-71
2023/02/02 17:08:36;;;;;;;6.63;1.43;;;3.10;99.90;;;;;;4893773;29;20506;-71
2023/02/02 17:11:07;;;;;;;2.13;1.53;;;3.00;99.90;;;;;;4893917;29;20448;-72
2023/02/02 17:13:36;;;;;;;3.97;1.87;;;3.00;99.90;;;;;;4895756;29;20809;-71
2023/02/02 17:16:01;;;;;;;2.40;2.20;;;3.00;99.90;;;;;;4898911;29;20482;-71
2023/02/02 17:18:27;;;;;;;2.10;1.83;;;2.90;99.90;;;;;;4897847;29;20636;-70
2023/02/02 17:21:02;;;;;;;2.93;2.27;;;2.90;99.90;;;;;;4915801;23;20314;-68
2023/02/02 17:23:30;;;;;;;4.00;2.50;;;2.90;99.90;;;;;;4901989;29;20933;-69
2023/02/02 17:25:56;;;;;;;5.00;1.90;;;2.90;99.90;;;;;;4894389;29;20413;-69
2023/02/02 17:28:24;;;;;;;6.97;3.03;;;2.90;99.90;;;;;;4887498;29;20469;-69
2023/02/02 17:31:04;;;;;;;3.53;2.67;;;2.80;99.90;;;;;;4895585;29;20616;-68
2023/02/02 17:33:33;;;;;;;2.70;2.50;;;2.90;99.90;;;;;;4886101;29;20435;-67
2023/02/02 17:35:58;;;;;;;2.27;2.10;;;2.80;99.90;;;;;;4895377;29;20518;-68
2023/02/02 17:38:26;;;;;;;3.33;2.10;;;2.70;99.90;;;;;;4890106;29;20451;-70
2023/02/02 17:40:53;;;;;;;3.20;2.20;;;2.70;99.90;;;;;;4884901;29;20280;-70
2023/02/02 17:43:18;;;;;;;2.90;2.20;;;2.70;99.90;;;;;;4893762;29;20828;-67
2023/02/02 17:45:44;;;;;;;4.87;2.30;;;2.60;99.90;;;;;;4885310;29;20413;-70
2023/02/02 17:48:12;;;;;;;3.03;2.03;;;2.60;99.90;;;;;;4888656;29;20200;-68
2023/02/02 17:50:38;;;;;;;3.00;2.70;;;2.60;99.90;;;;;;4888319;29;20204;-69
2023/02/02 17:53:04;;;;;;;7.10;2.90;;;2.50;99.90;;;;;;4892573;29;20466;-68
2023/02/02 17:55:38;;;;;;;4.70;2.70;;;2.50;99.90;;;;;;4896394;29;20772;-68
2023/02/02 17:58:05;;;;;;;3.27;2.30;;;2.50;99.90;;;;;;4884277;29;20416;-67
2023/02/02 18:00:31;;;;;;;5.27;2.80;;;2.50;99.90;;;;;;4893957;29;20428;-68
2023/02/02 18:03:07;;;;;;;6.10;2.43;;;2.40;99.90;;;;;;4889304;29;20790;-69
2023/02/02 18:05:32;;;;;;;3.27;2.37;;;2.40;99.90;;;;;;4894692;29;20475;-69
2023/02/02 18:07:58;;;;;;;2.03;1.83;;;2.30;99.90;;;;;;4885911;29;20520;-70
2023/02/02 18:10:24;;;;;;;3.00;2.60;;;2.40;99.90;;;;;;4876927;29;20205;-68
2023/02/02 18:12:50;;;;;;;4.80;2.43;;;2.30;99.90;;;;;;4891166;29;20237;-67
2023/02/02 18:15:16;;;;;;;3.33;2.97;;;2.30;99.90;;;;;;4890305;29;20560;-67
2023/02/02 18:17:42;;;;;;;4.37;2.43;;;2.30;99.90;;;;;;4894894;29;20173;-69
2023/02/02 18:20:12;;;;;;;4.80;2.87;;;2.20;99.90;;;;;;4883475;29;20221;-68
2023/02/02 18:22:37;;;;;;;5.40;2.90;;;2.20;99.90;;;;;;4894560;29;20177;-68
2023/02/02 18:25:04;;;;;;;2.30;2.10;;;2.30;99.90;;;;;;4886884;29;20468;-69
2023/02/02 18:27:29;;;;;;;9.33;4.73;;;2.30;99.90;;;;;;4890743;29;20257;-70
2023/02/02 18:29:55;;;;;;;4.00;3.20;;;2.30;99.90;;;;;;4891681;29;20462;-69
2023/02/02 18:32:21;;;;;;;3.63;3.33;;;2.20;99.90;;;;;;4885526;29;20214;-68
2023/02/02 18:34:50;;;;;;;11.93;4.73;;;2.20;99.90;;;;;;4891734;29;20211;-69
2023/02/02 18:37:16;;;;;;;6.20;4.13;;;2.20;99.90;;;;;;4895842;29;20218;-73
2023/02/02 18:39:43;;;;;;;6.30;3.77;;;2.10;99.90;;;;;;4882673;29;20521;-69
2023/02/02 18:42:09;;;;;;;14.43;3.50;;;2.20;99.90;;;;;;4886778;29;20475;-68
2023/02/02 18:44:37;;;;;;;7.70;3.90;;;2.20;99.90;;;;;;4888089;29;20417;-70
2023/02/02 18:47:03;;;;;;;3.50;3.20;;;2.10;99.90;;;;;;4893519;29;20268;-69
2023/02/02 18:49:28;;;;;;;3.73;3.27;;;2.10;99.90;;;;;;4889337;29;20453;-69
2023/02/02 18:51:54;;;;;;;4.10;3.70;;;2.10;99.90;;;;;;4894108;29;20441;-69
2023/02/02 18:54:21;;;;;;;8.83;4.73;;;2.10;99.90;;;;;;4897295;29;20197;-68
2023/02/02 18:56:46;;;;;;;5.87;4.27;;;2.10;99.90;;;;;;4885693;29;20224;-69
2023/02/02 18:59:12;;;;;;;4.33;3.53;;;2.10;99.90;;;;;;4892261;29;20411;-69
2023/02/02 19:01:38;;;;;;;9.17;4.37;;;2.10;99.90;;;;;;4894050;29;20230;-68
2023/02/02 19:04:03;;;;;;;7.90;4.10;;;2.00;99.90;;;;;;4892821;29;20264;-69
2023/02/02 19:09:15;;;;;;;5.50;2.63;;;2.00;99.90;;;;;;4891698;29;20612;-69
2023/02/02 19:11:46;;;;;;;5.33;3.50;;;2.00;99.90;;;;;;4888953;29;20897;-70
2023/02/02 19:14:23;;;;;;;2.50;2.13;;;2.00;99.90;;;;;;4886099;29;20849;-69
2023/02/02 19:16:49;;;;;;;4.00;3.30;;;1.90;99.90;;;;;;4883381;29;20471;-69
2023/02/02 19:19:24;;;;;;;9.80;3.30;;;1.90;99.90;;;;;;4898514;29;20425;-70
2023/02/02 19:21:55;;;;;;;3.80;2.93;;;2.00;99.90;;;;;;4885729;29;20465;-70
2023/02/02 19:24:21;;;;;;;8.90;3.80;;;1.90;99.90;;;;;;4892120;29;20816;-68
2023/02/02 19:26:48;;;;;;;7.00;4.10;;;2.00;99.90;;;;;;4899168;29;20572;-67
2023/02/02 19:29:27;;;;;;;7.60;4.97;;;1.90;99.90;;;;;;4897886;29;20420;-69
2023/02/02 19:32:01;;;;;;;6.17;4.30;;;1.90;99.90;;;;;;4882432;29;20438;-69
2023/02/02 19:34:28;;;;;;;7.83;4.20;;;1.90;99.90;;;;;;4883113;29;20423;-69
2023/02/02 19:36:54;;;;;;;5.13;3.43;;;1.80;99.90;;;;;;4895262;29;20469;-69
2023/02/02 19:39:29;;;;;;;9.00;4.03;;;1.80;99.90;;;;;;4892327;29;20435;-70
2023/02/02 19:41:57;;;;;;;5.33;3.17;;;1.80;99.90;;;;;;4897595;29;21039;-68
2023/02/02 19:44:28;;;;;;;3.07;2.70;;;1.80;99.90;;;;;;4898681;29;20472;-69
2023/02/02 19:46:55;;;;;;;5.93;3.73;;;1.90;99.90;;;;;;4897764;29;21321;-69
2023/02/02 19:49:39;;;;;;;4.70;2.70;;;1.90;99.90;;;;;;4887979;29;20450;-69
2023/02/02 19:52:17;;;;;;;3.20;2.90;;;1.90;99.90;;;;;;4901167;29;20436;-69
2023/02/02 19:54:43;;;;;;;5.57;3.33;;;2.00;99.90;;;;;;4891726;29;20428;-69
2023/02/02 19:57:40;;;;;;;5.07;3.10;;;2.10;99.90;;;;;;4889825;29;20470;-68
2023/02/02 20:00:39;;;;;;;6.17;4.40;;;2.20;99.90;;;;;;4884747;29;21026;-69
2023/02/02 20:03:17;;;;;;;9.17;5.67;;;2.20;99.90;;;;;;4863778;29;20424;-69
2023/02/02 20:05:48;;;;;;;11.83;4.40;;;2.20;99.90;;;;;;4892461;29;20410;-69
2023/02/02 20:08:35;;;;;;;5.47;4.13;;;2.20;99.90;;;;;;4884903;29;20505;-68
2023/02/02 20:11:34;;;;;;;4.33;3.70;;;2.30;99.90;;;;;;4882298;29;21252;-69
2023/02/02 20:14:12;;;;;;;4.37;3.90;;;2.40;99.90;;;;;;4886258;29;20436;-69
2023/02/02 20:16:43;;;;;;;6.67;4.80;;;2.40;99.90;;;;;;4890253;29;20471;-69
2023/02/02 20:19:25;;;;;;;7.23;4.70;;;2.40;99.90;;;;;;4891371;29;20417;-69
2023/02/02 20:21:52;;;;;;;7.80;4.20;;;2.40;99.90;;;;;;4888589;29;20551;-69
2023/02/02 20:24:34;;;;;;;6.43;3.27;;;2.30;99.90;;;;;;4886091;29;20448;-67
2023/02/02 20:27:13;;;;;;;4.43;3.37;;;2.30;99.90;;;;;;4886920;29;20433;-69
2023/02/02 20:29:44;;;;;;;5.70;3.73;;;2.40;99.90;;;;;;4887797;29;20417;-69
2023/02/02 20:32:34;;;;;;;5.50;4.00;;;2.40;99.90;;;;;;4891044;29;20428;-68
2023/02/02 20:35:01;;;;;;;6.83;3.53;;;2.30;99.90;;;;;;4878256;29;20595;-67
2023/02/02 20:37:34;;;;;;;3.83;2.80;;;2.40;99.90;;;;;;4890388;29;20525;-68
2023/02/02 20:40:20;;;;;;;10.97;3.50;;;2.40;99.90;;;;;;4890751;29;20527;-70
2023/02/02 20:42:46;;;;;;;4.43;2.70;;;2.40;99.90;;;;;;4876033;29;20490;-69
2023/02/02 20:45:15;;;;;;;4.37;2.57;;;2.40;99.90;;;;;;4883842;29;20412;-67
2023/02/02 20:47:41;;;;;;;5.73;3.47;;;2.40;99.90;;;;;;4888969;29;20424;-68
2023/02/02 20:50:08;;;;;;;6.53;3.77;;;2.30;99.90;;;;;;4885154;29;20440;-68
2023/02/02 20:52:34;;;;;;;11.73;3.83;;;2.40;99.90;;;;;;4897421;29;20180;-69
2023/02/02 20:55:00;;;;;;;7.60;3.10;;;2.30;99.90;;;;;;4885972;29;20431;-69
2023/02/02 20:57:26;;;;;;;7.00;3.60;;;2.30;99.90;;;;;;4894073;29;20456;-70
2023/02/02 20:59:56;;;;;;;8.43;3.60;;;2.30;99.90;;;;;;4890716;29;20216;-70
2023/02/02 21:02:23;;;;;;;4.20;3.57;;;2.30;99.90;;;;;;4897631;29;20188;-70
2023/02/02 21:04:50;;;;;;;10.43;4.53;;;2.30;99.90;;;;;;4895788;29;20421;-71
2023/02/02 21:07:18;;;;;;;5.50;3.70;;;2.30;99.90;;;;;;4887595;29;20761;-70
2023/02/02 21:09:44;;;;;;;14.57;4.83;;;2.30;99.90;;;;;;4883178;29;20412;-70
2023/02/02 21:12:10;;;;;;;5.23;3.93;;;2.40;99.90;;;;;;4894026;29;20427;-69
2023/02/02 21:14:36;;;;;;;5.50;4.27;;;2.30;99.90;;;;;;4886036;29;20417;-70
2023/02/02 21:17:02;;;;;;;8.13;4.40;;;2.30;99.90;;;;;;4895084;29;20495;-70
2023/02/02 21:19:28;;;;;;;5.30;3.63;;;2.30;99.90;;;;;;4896103;29;20209;-71
2023/02/02 21:21:55;;;;;;;7.90;4.13;;;2.30;99.90;;;;;;4892731;29;20292;-68
2023/02/02 21:24:21;;;;;;;5.70;3.80;;;2.30;99.90;;;;;;4895822;29;20184;-70
2023/02/02 21:26:47;;;;;;;4.63;3.67;;;2.40;99.90;;;;;;4899225;29;20436;-70
2023/02/02 21:29:13;;;;;;;6.43;4.60;;;2.40;99.90;;;;;;4895553;29;20424;-70
2023/02/02 21:31:38;;;;;;;3.70;3.40;;;2.40;99.90;;;;;;4891854;29;20201;-70
2023/02/02 21:34:05;;;;;;;5.33;2.80;;;2.40;99.90;;;;;;4898583;29;20219;-70
2023/02/02 21:36:45;;;;;;;4.13;2.90;;;2.40;99.90;;;;;;4896791;29;20583;-69
2023/02/02 21:39:37;;;;;;;4.77;3.37;;;2.40;99.90;;;;;;4885510;29;20528;-71
2023/02/02 21:42:13;;;;;;;5.10;3.87;;;2.50;99.90;;;;;;4894839;29;20440;-69
2023/02/02 21:44:52;;;;;;;5.33;3.40;;;2.60;99.90;;;;;;4893892;29;20454;-70
2023/02/02 21:47:21;;;;;;;4.90;3.50;;;2.60;99.90;;;;;;4894089;29;20749;-69
2023/02/02 21:49:46;;;;;;;3.27;2.97;;;2.60;99.90;;;;;;4893278;29;20421;-69
2023/02/02 21:52:16;;;;;;;4.00;3.40;;;2.60;99.90;;;;;;4884080;29;20413;-70
2023/02/02 21:54:43;;;;;;;11.63;3.50;;;2.50;99.90;;;;;;4898999;29;20188;-69
2023/02/02 21:57:20;;;;;;;4.43;2.77;;;2.50;99.90;;;;;;4900340;29;20472;-68
2023/02/02 21:59:52;;;;;;;6.40;3.50;;;2.50;99.90;;;;;;4884185;29;20408;-69
2023/02/02 22:02:38;;;;;;;5.00;3.40;;;2.50;99.90;;;;;;4881429;29;20897;-69
2023/02/02 22:05:17;;;;;;;4.17;3.70;;;2.60;99.90;;;;;;4888484;29;20432;-70
2023/02/02 22:07:46;;;;;;;3.80;3.50;;;2.60;99.90;;;;;;4888391;29;20786;-70
2023/02/02 22:10:41;;;;;;;6.40;3.37;;;2.70;99.90;;;;;;4888287;29;20951;-69
2023/02/02 22:13:18;;;;;;;10.70;4.00;;;2.70;99.90;;;;;;4887655;29;20741;-71
2023/02/02 22:15:46;;;;;;;3.27;2.93;;;2.70;99.90;;;;;;4887145;29;20475;-68
2023/02/02 22:18:20;;;;;;;6.60;3.17;;;2.70;99.90;;;;;;4887578;29;20422;-71
2023/02/02 22:20:49;;;;;;;4.87;4.43;;;2.70;99.90;;;;;;4885987;29;20985;-69
2023/02/02 22:23:20;;;;;;;4.93;2.70;;;2.70;99.90;;;;;;4889631;29;20789;-69
2023/02/02 22:25:48;;;;;;;4.43;3.03;;;2.70;99.90;;;;;;4895631;29;20420;-69
2023/02/02 22:28:20;;;;;;;3.47;3.17;;;2.80;99.90;;;;;;4901766;29;20452;-70
2023/02/02 22:30:46;;;;;;;4.40;3.37;;;2.80;99.90;;;;;;4886842;29;20436;-68
2023/02/02 22:33:13;;;;;;;6.30;2.83;;;2.80;99.90;;;;;;4894153;29;20425;-69
2023/02/02 22:35:39;;;;;;;3.40;2.30;;;2.80;99.90;;;;;;4901045;29;20464;-70
2023/02/02 22:38:05;;;;;;;4.70;2.67;;;2.90;99.90;;;;;;4898399;29;20928;-68
2023/02/02 22:40:31;;;;;;;3.90;2.90;;;2.90;99.90;;;;;;4886432;29;20452;-71
2023/02/02 22:42:59;;;;;;;8.30;3.40;;;3.00;99.90;;;;;;4896367;29;20213;-70
2023/02/02 22:45:25;;;;;;;16.33;3.50;;;3.00;99.90;;;;;;4898530;29;20267;-71
2023/02/02 22:47:51;;;;;;;3.63;3.27;;;3.00;99.90;;;;;;4895778;29;20409;-70
2023/02/02 22:50:20;;;;;;;6.03;2.70;;;3.10;99.90;;;;;;4887251;29;20436;-70
2023/02/02 22:52:45;;;;;;;5.20;2.73;;;3.10;99.90;;;;;;4881203;29;20839;-70
2023/02/02 22:55:12;;;;;;;5.87;3.00;;;3.10;99.90;;;;;;4888335;29;20409;-70
2023/02/02 22:57:37;;;;;;;3.90;3.60;;;3.10;99.90;;;;;;4885989;29;20188;-70
2023/02/02 23:00:09;;;;;;;5.70;2.67;;;3.10;99.90;;;;;;4893074;29;20443;-70
2023/02/02 23:02:34;;;;;;;4.97;2.40;;;3.10;99.90;;;;;;4886342;29;20253;-70
2023/02/02 23:05:00;;;;;;;4.27;2.53;;;3.20;99.90;;;;;;4895943;29;20420;-69
2023/02/02 23:07:26;;;;;;;6.00;2.90;;;3.20;99.90;;;;;;4898822;29;20181;-69
2023/02/02 23:09:51;;;;;;;3.80;2.43;;;3.20;99.90;;;;;;4899295;29;20180;-70
2023/02/02 23:12:17;;;;;;;9.27;2.87;;;3.20;99.90;;;;;;4893850;29;20211;-69
2023/02/02 23:14:42;;;;;;;7.57;2.43;;;3.30;99.90;;;;;;4882680;29;20183;-68
2023/02/02 23:17:08;;;;;;;8.80;3.00;;;3.30;99.90;;;;;;4893449;29;20247;-69
2023/02/02 23:19:34;;;;;;;6.63;3.07;;;3.30;99.90;;;;;;4891637;29;20172;-70
2023/02/02 23:21:59;;;;;;;7.77;2.93;;;3.20;99.90;;;;;;4912718;23;20239;-68
2023/02/02 23:24:25;;;;;;;8.43;2.67;;;3.30;99.90;;;;;;4900326;29;20180;-69
2023/02/02 23:26:50;;;;;;;2.67;2.43;;;3.30;99.90;;;;;;4897713;29;20184;-69
2023/02/02 23:29:16;;;;;;;6.20;2.10;;;3.30;99.90;;;;;;4897808;29;20619;-69
2023/02/02 23:31:41;;;;;;;3.70;1.90;;;3.30;99.90;;;;;;4882526;29;20684;-68
2023/02/02 23:34:07;;;;;;;4.00;2.17;;;3.30;99.90;;;;;;4882244;29;20264;-69
2023/02/02 23:36:33;;;;;;;5.73;2.37;;;3.30;99.90;;;;;;4875645;29;20252;-69
2023/02/02 23:38:58;;;;;;;3.17;2.20;;;3.30;99.90;;;;;;4876145;29;20597;-69
2023/02/02 23:41:24;;;;;;;2.33;2.10;;;3.30;99.90;;;;;;4879365;29;20409;-69
2023/02/02 23:43:49;;;;;;;4.97;2.80;;;3.40;99.90;;;;;;4878998;29;20232;-69
2023/02/02 23:46:16;;;;;;;5.20;2.90;;;3.30;99.90;;;;;;4883234;29;20169;-70
2023/02/02 23:48:41;;;;;;;5.13;3.13;;;3.40;99.90;;;;;;4877307;29;20213;-70
2023/02/02 23:51:07;;;;;;;4.50;3.23;;;3.30;99.90;;;;;;4876401;29;20948;-70
2023/02/02 23:53:33;;;;;;;4.90;2.87;;;3.40;99.90;;;;;;4878777;29;20184;-70
2023/02/02 23:55:58;;;;;;;6.10;2.70;;;3.40;99.90;;;;;;4878870;29;21002;-71
2023/02/02 23:58:24;;;;;;;9.13;3.50;;;3.40;99.90;;;;;;4877895;29;20252;-69
